Time;durP1;ratioP1;P1;durP2;ratioP2;P2;SDS_P1;SDS_P2;PMS_P1;PMS_P2;Temp;Humidity;BMP_temperature;BMP_pressure;BME280_temperature;BME280_humidity;BME280_pressure;Samples;Min_cycle;Max_cycle;Signal;HPM_P1;HPM_P2
2022/03/30 00:00:51;;;;;;;17.60;15.50;;;13.10;48.00;;;;;;6268120;28;20478;-62
2022/03/30 00:03:56;;;;;;;19.33;17.50;;;13.10;48.20;;;;;;6248278;28;21022;-61
2022/03/30 00:06:59;;;;;;;16.23;14.67;;;13.00;48.20;;;;;;6248016;28;20490;-62
2022/03/30 00:10:03;;;;;;;16.77;14.97;;;13.00;48.40;;;;;;6263024;28;20478;-67
2022/03/30 00:13:08;;;;;;;17.67;15.10;;;13.00;48.40;;;;;;6272244;28;20474;-62
2022/03/30 00:16:12;;;;;;;16.77;15.07;;;12.90;48.50;;;;;;6272125;28;20486;-62
2022/03/30 00:19:17;;;;;;;16.93;15.13;;;12.90;49.50;;;;;;6272529;28;20485;-62
2022/03/30 00:22:20;;;;;;;18.07;14.00;;;12.80;48.90;;;;;;6271347;28;20490;-62
2022/03/30 00:25:23;;;;;;;17.53;15.83;;;12.80;49.00;;;;;;6271359;28;20512;-62
2022/03/30 00:28:28;;;;;;;16.33;14.60;;;12.80;49.10;;;;;;6274979;28;20442;-61
2022/03/30 00:31:31;;;;;;;17.27;15.47;;;12.70;49.10;;;;;;6272260;28;20875;-61
2022/03/30 00:34:35;;;;;;;17.57;15.87;;;12.70;49.20;;;;;;6274669;28;20469;-61
2022/03/30 00:37:39;;;;;;;16.67;14.73;;;12.70;49.10;;;;;;6278375;28;20469;-62
2022/03/30 00:40:42;;;;;;;17.47;15.83;;;12.70;49.20;;;;;;6277847;28;20473;-61
2022/03/30 00:43:45;;;;;;;21.20;16.17;;;12.60;49.30;;;;;;6277595;28;20801;-60
2022/03/30 00:46:48;;;;;;;18.63;15.67;;;12.60;49.50;;;;;;6277675;28;20481;-61
2022/03/30 00:49:54;;;;;;;17.60;15.70;;;12.60;49.70;;;;;;6275359;28;20469;-61
2022/03/30 00:52:57;;;;;;;17.63;14.47;;;12.60;49.90;;;;;;6277766;28;20476;-61
2022/03/30 00:56:01;;;;;;;17.83;16.13;;;12.50;50.00;;;;;;6277679;28;20473;-61
2022/03/30 00:59:06;;;;;;;15.87;13.90;;;12.50;50.10;;;;;;6277528;28;20466;-62
2022/03/30 01:02:10;;;;;;;17.13;15.33;;;12.50;50.40;;;;;;6277354;28;20481;-62
2022/03/30 01:05:15;;;;;;;18.10;14.87;;;12.40;50.50;;;;;;6277088;28;20465;-62
2022/03/30 01:08:19;;;;;;;16.47;14.70;;;12.40;50.60;;;;;;6277745;28;20470;-62
2022/03/30 01:11:22;;;;;;;16.67;14.90;;;12.30;50.70;;;;;;6277147;28;20474;-62
2022/03/30 01:14:27;;;;;;;16.30;14.37;;;12.30;50.70;;;;;;6276717;28;20474;-62
2022/03/30 01:17:30;;;;;;;19.63;14.40;;;12.30;50.60;;;;;;6276609;28;20854;-62
2022/03/30 01:20:35;;;;;;;16.23;14.63;;;12.20;50.70;;;;;;6276989;28;20466;-62
2022/03/30 01:23:40;;;;;;;17.43;15.67;;;12.20;50.70;;;;;;6276996;28;20497;-62
2022/03/30 01:26:43;;;;;;;21.53;16.07;;;12.10;50.50;;;;;;6276737;28;20985;-62
2022/03/30 01:33:08;;;;;;;18.03;14.97;;;12.10;50.20;;;;;;6276895;28;20489;-62
2022/03/30 01:36:11;;;;;;;17.00;15.20;;;12.10;49.80;;;;;;6274732;28;20466;-62
2022/03/30 01:39:16;;;;;;;15.93;14.43;;;12.10;49.60;;;;;;6276105;28;20470;-61
2022/03/30 01:42:19;;;;;;;18.67;15.60;;;12.10;49.50;;;;;;6276301;28;20475;-61
2022/03/30 01:45:22;;;;;;;19.13;16.20;;;12.20;49.30;;;;;;6276021;28;20467;-61
2022/03/30 01:48:25;;;;;;;17.17;15.47;;;12.10;49.30;;;;;;6276673;28;20470;-61
2022/03/30 01:51:28;;;;;;;19.20;15.97;;;12.20;49.40;;;;;;6274052;28;20960;-61
2022/03/30 01:54:36;;;;;;;17.97;16.13;;;12.30;49.10;;;;;;6276941;28;20478;-61
2022/03/30 01:57:39;;;;;;;17.63;15.30;;;12.30;49.10;;;;;;6277037;28;20499;-61
2022/03/30 02:00:43;;;;;;;16.20;14.50;;;12.40;49.00;;;;;;6276709;28;20474;-61
2022/03/30 02:03:46;;;;;;;16.90;15.20;;;12.40;48.90;;;;;;6276901;28;20482;-61
2022/03/30 02:06:49;;;;;;;23.40;15.93;;;12.40;48.90;;;;;;6276782;28;20470;-61
2022/03/30 02:09:54;;;;;;;19.17;15.90;;;12.40;48.90;;;;;;6276392;28;20485;-61
2022/03/30 02:12:58;;;;;;;16.90;14.77;;;12.40;48.80;;;;;;6276205;28;20482;-62
2022/03/30 02:16:01;;;;;;;15.80;14.30;;;12.40;48.90;;;;;;6276151;28;20485;-62
2022/03/30 02:19:04;;;;;;;16.13;14.13;;;12.40;48.80;;;;;;6276264;28;20478;-62
2022/03/30 02:22:07;;;;;;;16.57;14.87;;;12.40;48.80;;;;;;6276248;28;20470;-61
2022/03/30 02:25:12;;;;;;;17.83;13.70;;;12.40;48.90;;;;;;6277423;28;21022;-64
2022/03/30 02:28:15;;;;;;;16.80;14.20;;;12.40;48.90;;;;;;6282744;28;20496;-64
2022/03/30 02:31:18;;;;;;;16.40;14.23;;;12.40;48.70;;;;;;6282583;28;20578;-64
2022/03/30 02:34:22;;;;;;;16.33;13.70;;;12.40;48.70;;;;;;6282763;28;20500;-65
2022/03/30 02:37:25;;;;;;;19.87;14.73;;;12.40;49.00;;;;;;6282416;28;20454;-65
2022/03/30 02:40:29;;;;;;;15.00;13.50;;;12.30;49.00;;;;;;6273776;28;20771;-65
2022/03/30 02:43:33;;;;;;;16.53;14.47;;;12.30;49.10;;;;;;6279960;28;20490;-64
2022/03/30 02:46:36;;;;;;;16.03;14.53;;;12.20;49.30;;;;;;6277527;28;20450;-60
2022/03/30 02:49:39;;;;;;;15.87;14.27;;;12.20;49.40;;;;;;6275628;28;20447;-60
2022/03/30 02:52:42;;;;;;;18.30;14.33;;;12.20;49.40;;;;;;6275430;28;20477;-60
2022/03/30 02:55:47;;;;;;;19.50;15.30;;;12.30;49.40;;;;;;6276045;28;20821;-60
2022/03/30 02:58:50;;;;;;;16.07;14.57;;;12.10;49.70;;;;;;6275606;28;20469;-60
2022/03/30 03:01:54;;;;;;;16.90;15.27;;;12.10;49.90;;;;;;6279293;28;20861;-65
2022/03/30 03:04:58;;;;;;;21.83;15.47;;;12.00;50.10;;;;;;6280085;28;20973;-65
2022/03/30 03:08:01;;;;;;;17.83;14.40;;;12.00;50.30;;;;;;6277838;28;20474;-62
2022/03/30 03:11:06;;;;;;;16.50;14.80;;;12.00;51.20;;;;;;6275402;28;20481;-63
2022/03/30 03:14:10;;;;;;;16.43;14.57;;;11.90;50.80;;;;;;6275231;28;20544;-63
2022/03/30 03:17:13;;;;;;;17.47;15.67;;;11.80;50.70;;;;;;6275435;28;20466;-61
2022/03/30 03:20:16;;;;;;;16.40;14.10;;;11.90;50.80;;;;;;6275911;28;20807;-61
2022/03/30 03:23:19;;;;;;;15.70;14.10;;;11.80;50.90;;;;;;6274831;28;20814;-61
2022/03/30 03:26:24;;;;;;;18.10;15.20;;;11.80;51.10;;;;;;6275091;28;20463;-62
2022/03/30 03:29:27;;;;;;;17.93;15.53;;;11.70;51.40;;;;;;6274963;28;20470;-62
2022/03/30 03:32:30;;;;;;;16.80;15.00;;;11.70;51.50;;;;;;6274993;28;20478;-62
2022/03/30 03:35:33;;;;;;;16.97;15.30;;;11.50;51.80;;;;;;6275296;28;20477;-62
2022/03/30 03:38:36;;;;;;;15.73;12.83;;;11.50;52.00;;;;;;6274891;28;20475;-63
2022/03/30 03:41:41;;;;;;;16.87;14.73;;;11.40;52.20;;;;;;6274713;28;20478;-62
2022/03/30 03:44:44;;;;;;;15.83;13.73;;;11.30;53.00;;;;;;6270099;28;20482;-62
2022/03/30 03:47:48;;;;;;;16.43;14.73;;;11.30;52.40;;;;;;6274816;28;20474;-62
2022/03/30 03:50:51;;;;;;;15.80;14.17;;;11.40;52.50;;;;;;6274894;28;20482;-62
2022/03/30 03:53:55;;;;;;;17.43;15.60;;;11.40;52.50;;;;;;6274461;28;20515;-62
2022/03/30 03:56:59;;;;;;;16.20;14.50;;;11.40;52.50;;;;;;6275232;28;20466;-63
2022/03/30 04:00:04;;;;;;;17.53;15.63;;;11.30;52.60;;;;;;6283315;28;20493;-64
2022/03/30 04:03:07;;;;;;;15.43;13.83;;;11.30;52.70;;;;;;6287923;28;20470;-64
2022/03/30 04:06:11;;;;;;;16.10;14.37;;;11.40;52.80;;;;;;6281323;28;20588;-61
2022/03/30 04:09:14;;;;;;;17.00;13.83;;;11.30;52.70;;;;;;6279300;28;20474;-61
2022/03/30 04:12:19;;;;;;;18.80;16.43;;;11.30;52.80;;;;;;6278898;28;20489;-61
2022/03/30 04:15:22;;;;;;;19.03;15.20;;;11.20;53.10;;;;;;6279739;28;20809;-64
2022/03/30 04:18:25;;;;;;;18.33;15.60;;;11.20;53.30;;;;;;6287015;28;20853;-65
2022/03/30 04:21:28;;;;;;;19.87;16.90;;;11.10;53.20;;;;;;6289238;28;20552;-65
2022/03/30 04:24:31;;;;;;;17.53;15.70;;;11.00;53.10;;;;;;6295359;28;20482;-64
2022/03/30 04:27:36;;;;;;;17.67;15.77;;;11.00;53.10;;;;;;6287284;28;20493;-62
2022/03/30 04:30:39;;;;;;;16.50;14.43;;;10.90;53.20;;;;;;6278507;28;20478;-62
2022/03/30 04:33:43;;;;;;;20.73;17.23;;;10.80;53.30;;;;;;6278418;28;20481;-62
2022/03/30 04:36:46;;;;;;;18.50;16.30;;;10.80;53.60;;;;;;6278814;28;20466;-62
2022/03/30 04:39:49;;;;;;;20.73;17.07;;;10.70;53.70;;;;;;6278907;28;20473;-62
2022/03/30 04:42:54;;;;;;;20.03;16.77;;;10.70;53.70;;;;;;6279184;28;20477;-64
2022/03/30 04:45:57;;;;;;;17.87;16.00;;;10.70;53.70;;;;;;6278742;28;21016;-62
2022/03/30 04:49:00;;;;;;;19.07;17.00;;;10.70;53.50;;;;;;6274655;28;20527;-61
2022/03/30 04:52:03;;;;;;;17.43;15.20;;;10.60;53.50;;;;;;6279049;28;20484;-60
2022/03/30 04:55:08;;;;;;;18.07;16.23;;;10.60;53.60;;;;;;6281528;28;20477;-65
2022/03/30 04:58:13;;;;;;;19.73;16.83;;;10.60;53.50;;;;;;6280053;28;20773;-60
2022/03/30 05:01:16;;;;;;;18.43;16.40;;;10.60;53.50;;;;;;6281089;28;20486;-65
2022/03/30 05:04:19;;;;;;;20.87;17.50;;;10.60;53.50;;;;;;6284648;28;20572;-62
2022/03/30 05:07:22;;;;;;;19.80;16.90;;;10.60;53.50;;;;;;6278267;28;20489;-59
2022/03/30 05:10:26;;;;;;;21.20;16.90;;;10.60;53.60;;;;;;6277746;28;20465;-59
2022/03/30 05:13:30;;;;;;;17.90;16.03;;;10.60;53.70;;;;;;6277773;28;20462;-59
2022/03/30 05:16:34;;;;;;;18.53;16.03;;;10.60;53.70;;;;;;6278024;28;20450;-59
2022/03/30 05:19:38;;;;;;;18.90;15.90;;;10.60;53.70;;;;;;6278009;28;20895;-59
2022/03/30 05:22:41;;;;;;;19.57;16.53;;;10.60;54.00;;;;;;6277743;28;20470;-61
2022/03/30 05:25:44;;;;;;;20.30;17.37;;;10.60;54.10;;;;;;6278035;28;20509;-60
2022/03/30 05:28:49;;;;;;;20.10;16.60;;;10.50;53.90;;;;;;6277613;28;20935;-61
2022/03/30 05:31:52;;;;;;;23.17;17.83;;;10.60;54.00;;;;;;6277201;28;20462;-61
2022/03/30 05:35:16;;;;;;;20.07;16.57;;;10.60;54.10;;;;;;6277228;28;21016;-61
2022/03/30 05:38:19;;;;;;;24.53;16.60;;;10.70;54.00;;;;;;6277611;28;20480;-61
2022/03/30 05:41:22;;;;;;;20.90;16.73;;;10.80;53.90;;;;;;6277312;28;20474;-62
2022/03/30 05:44:27;;;;;;;17.90;16.10;;;10.90;53.70;;;;;;6276972;28;20477;-61
2022/03/30 05:47:30;;;;;;;17.10;15.03;;;11.00;53.20;;;;;;6277528;28;20485;-61
2022/03/30 05:50:33;;;;;;;17.57;15.20;;;11.10;52.90;;;;;;6268160;28;20491;-61
2022/03/30 05:53:36;;;;;;;17.33;15.53;;;11.20;52.70;;;;;;6276876;28;20477;-60
2022/03/30 06:00:01;;;;;;;21.20;18.17;;;11.10;53.00;;;;;;6276503;28;20482;-61
2022/03/30 06:03:05;;;;;;;21.83;18.67;;;11.20;53.00;;;;;;6276025;28;20810;-61
2022/03/30 06:06:08;;;;;;;21.77;19.10;;;11.20;53.10;;;;;;6283388;28;20547;-62
2022/03/30 06:09:12;;;;;;;23.40;18.60;;;11.20;53.20;;;;;;6283486;28;20473;-63
2022/03/30 06:12:15;;;;;;;21.63;19.37;;;11.30;53.20;;;;;;6281774;28;20969;-63
2022/03/30 06:15:20;;;;;;;23.87;21.37;;;11.50;53.20;;;;;;6280475;28;20841;-62
2022/03/30 06:18:23;;;;;;;26.83;19.83;;;11.50;53.00;;;;;;6280808;28;20493;-62
2022/03/30 06:21:26;;;;;;;23.40;19.07;;;11.70;53.00;;;;;;6279754;28;20811;-61
2022/03/30 06:24:29;;;;;;;22.93;18.40;;;11.90;52.80;;;;;;6277464;28;20478;-60
2022/03/30 06:27:32;;;;;;;20.83;18.63;;;12.10;52.40;;;;;;6275782;28;20580;-61
2022/03/30 06:30:37;;;;;;;24.33;17.57;;;12.30;52.00;;;;;;6276407;28;21003;-61
2022/03/30 06:33:40;;;;;;;20.80;17.33;;;12.50;51.40;;;;;;6275967;28;20492;-61
2022/03/30 06:36:44;;;;;;;19.50;17.30;;;12.70;50.90;;;;;;6275867;28;20474;-62
2022/03/30 06:39:48;;;;;;;21.40;17.33;;;12.80;50.50;;;;;;6275984;28;20472;-62
2022/03/30 06:42:54;;;;;;;20.23;16.03;;;13.00;50.30;;;;;;6275948;28;20972;-62
2022/03/30 06:45:58;;;;;;;19.20;15.40;;;13.10;50.20;;;;;;6276478;28;20489;-61
2022/03/30 06:49:02;;;;;;;19.33;16.40;;;13.20;50.00;;;;;;6276139;28;21023;-62
2022/03/30 06:52:05;;;;;;;23.87;16.27;;;13.30;49.80;;;;;;6276387;28;20478;-62
2022/03/30 06:55:09;;;;;;;19.13;15.63;;;13.40;49.60;;;;;;6272373;28;20478;-62
2022/03/30 06:58:12;;;;;;;20.53;16.50;;;13.60;49.40;;;;;;6275315;28;20485;-62
2022/03/30 07:01:17;;;;;;;24.97;16.43;;;13.70;48.80;;;;;;6275388;28;20497;-62
2022/03/30 07:04:20;;;;;;;22.90;16.40;;;13.90;49.00;;;;;;6275854;28;21008;-62
2022/03/30 07:10:44;;;;;;;24.30;15.90;;;14.20;48.40;;;;;;6275481;28;20481;-62
2022/03/30 07:13:47;;;;;;;18.87;16.97;;;14.30;48.10;;;;;;6275279;28;20466;-62
2022/03/30 07:16:51;;;;;;;21.30;16.77;;;14.50;48.10;;;;;;6275306;28;20466;-62
2022/03/30 07:19:55;;;;;;;21.83;16.90;;;14.60;47.70;;;;;;6275344;28;20458;-62
2022/03/30 07:22:59;;;;;;;19.47;17.47;;;14.70;47.40;;;;;;6275539;28;20489;-62
2022/03/30 07:26:02;;;;;;;22.53;16.57;;;14.80;47.10;;;;;;6275555;28;20482;-61
2022/03/30 07:29:05;;;;;;;20.57;17.57;;;14.90;47.20;;;;;;6275400;28;20968;-61
2022/03/30 07:32:09;;;;;;;20.57;18.43;;;15.10;47.70;;;;;;6275200;28;20489;-61
2022/03/30 07:35:15;;;;;;;23.73;17.73;;;15.20;46.80;;;;;;6276096;28;20481;-61
2022/03/30 07:38:20;;;;;;;19.10;16.30;;;15.40;46.60;;;;;;6276521;28;20500;-61
2022/03/30 07:41:23;;;;;;;21.07;17.63;;;15.50;46.00;;;;;;6274599;28;20470;-62
2022/03/30 07:44:27;;;;;;;23.40;17.57;;;15.60;45.90;;;;;;6275008;28;20557;-62
2022/03/30 07:47:31;;;;;;;21.33;16.97;;;15.60;45.70;;;;;;6274795;28;20485;-61
2022/03/30 07:50:35;;;;;;;17.90;16.00;;;15.70;45.40;;;;;;6274922;28;20471;-61
2022/03/30 07:53:38;;;;;;;19.10;17.07;;;15.80;45.10;;;;;;6274699;28;20474;-61
2022/03/30 07:56:41;;;;;;;22.93;17.10;;;15.90;45.00;;;;;;6278220;28;20488;-62
2022/03/30 07:59:44;;;;;;;23.30;16.63;;;15.90;45.50;;;;;;6278520;28;20466;-60
2022/03/30 08:02:49;;;;;;;19.43;17.40;;;16.00;44.80;;;;;;6276780;28;20489;-60
2022/03/30 08:05:53;;;;;;;22.53;17.00;;;16.20;44.90;;;;;;6275708;28;20479;-65
2022/03/30 08:08:56;;;;;;;19.20;16.97;;;16.20;44.40;;;;;;6277632;28;20481;-65
2022/03/30 08:11:59;;;;;;;21.00;17.00;;;16.20;44.30;;;;;;6275366;28;20833;-62
2022/03/30 08:15:02;;;;;;;19.27;16.53;;;16.10;44.30;;;;;;6274556;28;20470;-62
2022/03/30 08:18:08;;;;;;;18.27;16.40;;;16.00;44.50;;;;;;6275602;28;20478;-62
2022/03/30 08:24:32;;;;;;;19.23;17.20;;;16.00;44.80;;;;;;6274160;28;20813;-61
2022/03/30 08:27:36;;;;;;;19.67;17.70;;;16.10;45.20;;;;;;6274175;28;20497;-62
2022/03/30 08:30:39;;;;;;;23.47;16.83;;;16.10;45.30;;;;;;6274198;28;20977;-62
2022/03/30 08:33:44;;;;;;;20.83;16.40;;;16.10;46.20;;;;;;6274156;28;20482;-60
2022/03/30 08:36:47;;;;;;;19.93;17.83;;;16.10;45.70;;;;;;6274705;28;20481;-59
2022/03/30 08:39:51;;;;;;;23.23;17.97;;;16.10;46.10;;;;;;6273880;28;20470;-59
2022/03/30 08:42:55;;;;;;;20.77;17.60;;;16.20;46.20;;;;;;6277332;28;20478;-64
2022/03/30 08:46:00;;;;;;;23.80;16.20;;;16.20;46.10;;;;;;6274594;28;20466;-64
2022/03/30 08:49:05;;;;;;;21.83;17.60;;;16.10;46.30;;;;;;6277815;28;20470;-60
2022/03/30 08:52:11;;;;;;;21.97;15.90;;;16.00;46.70;;;;;;6278794;28;20474;-60
2022/03/30 08:55:14;;;;;;;22.03;16.77;;;16.00;47.00;;;;;;6280505;28;20470;-64
2022/03/30 08:58:17;;;;;;;20.73;16.73;;;15.90;47.20;;;;;;6271650;28;20470;-60
2022/03/30 09:01:23;;;;;;;20.70;18.50;;;15.60;47.50;;;;;;6263272;28;21012;-60
2022/03/30 09:04:28;;;;;;;27.70;17.03;;;15.50;47.90;;;;;;6269416;28;20897;-60
2022/03/30 09:07:31;;;;;;;19.87;16.60;;;15.40;48.10;;;;;;6252309;28;21077;-60
2022/03/30 09:10:35;;;;;;;21.03;17.30;;;15.20;48.40;;;;;;6252316;28;20439;-60
2022/03/30 09:13:38;;;;;;;27.83;17.87;;;15.00;49.20;;;;;;6253498;28;20463;-60
2022/03/30 09:16:44;;;;;;;18.80;16.80;;;15.10;49.30;;;;;;6251940;28;20448;-61
2022/03/30 09:19:52;;;;;;;19.33;17.17;;;15.20;49.00;;;;;;6252747;28;20588;-61
2022/03/30 09:22:58;;;;;;;21.90;15.90;;;15.30;48.70;;;;;;6252297;28;20483;-61
2022/03/30 09:26:18;;;;;;;20.83;18.53;;;15.50;48.70;;;;;;6252703;28;21005;-60
2022/03/30 09:29:21;;;;;;;19.43;17.03;;;15.60;48.20;;;;;;6253083;28;20483;-60
2022/03/30 09:32:42;;;;;;;21.80;16.40;;;15.70;48.10;;;;;;6253907;28;20478;-60
2022/03/30 09:35:47;;;;;;;18.30;16.37;;;15.80;47.60;;;;;;6252498;28;20486;-60
2022/03/30 09:38:50;;;;;;;18.70;16.10;;;15.90;47.50;;;;;;6252192;28;20550;-61
2022/03/30 09:41:55;;;;;;;18.73;16.47;;;16.20;47.20;;;;;;6269800;28;20471;-61
2022/03/30 09:44:58;;;;;;;19.17;16.20;;;16.40;46.90;;;;;;6278044;28;20481;-61
2022/03/30 09:48:11;;;;;;;23.90;17.30;;;16.50;46.40;;;;;;6277297;28;20838;-60
2022/03/30 09:51:16;;;;;;;19.93;17.47;;;16.50;46.30;;;;;;6277026;28;20492;-60
2022/03/30 09:54:37;;;;;;;17.70;15.77;;;16.60;46.20;;;;;;6276801;28;20493;-60
2022/03/30 09:57:42;;;;;;;18.80;16.93;;;16.60;46.20;;;;;;6270004;28;20455;-60
2022/03/30 10:00:48;;;;;;;24.20;18.93;;;16.60;46.10;;;;;;6251579;28;20478;-60
2022/03/30 10:03:53;;;;;;;24.13;19.47;;;16.70;46.00;;;;;;6252054;28;20553;-60
2022/03/30 10:06:59;;;;;;;23.83;19.60;;;16.60;45.80;;;;;;6246874;28;20621;-60
2022/03/30 10:10:04;;;;;;;26.77;18.70;;;16.40;45.90;;;;;;6251730;28;20479;-60
2022/03/30 10:13:07;;;;;;;23.57;19.23;;;16.30;46.20;;;;;;6250980;28;20486;-61
2022/03/30 10:16:13;;;;;;;27.60;21.50;;;16.50;46.20;;;;;;6251330;28;20482;-60
2022/03/30 10:19:16;;;;;;;30.10;21.57;;;16.50;46.50;;;;;;6251595;28;20626;-60
2022/03/30 10:23:04;;;;;;;28.17;23.23;;;16.30;47.20;;;;;;6251249;28;20476;-60
2022/03/30 10:26:13;;;;;;;27.70;21.60;;;15.70;47.50;;;;;;6251431;28;20483;-60
2022/03/30 10:29:18;;;;;;;22.20;19.90;;;15.40;48.90;;;;;;6252299;28;20947;-60
2022/03/30 10:32:23;;;;;;;30.03;21.40;;;15.40;48.50;;;;;;6262004;28;20581;-60
2022/03/30 10:35:39;;;;;;;24.43;19.00;;;15.50;48.50;;;;;;6280410;28;20489;-60
2022/03/30 10:39:07;;;;;;;25.97;22.60;;;15.80;48.10;;;;;;6275667;28;20471;-60
2022/03/30 10:42:22;;;;;;;29.83;21.00;;;15.80;47.80;;;;;;6275190;28;20970;-60
2022/03/30 10:45:26;;;;;;;22.63;20.27;;;15.80;47.90;;;;;;6275426;28;20474;-60
2022/03/30 10:48:38;;;;;;;23.93;20.10;;;15.70;47.80;;;;;;6275561;28;20505;-60
2022/03/30 10:51:43;;;;;;;26.03;20.00;;;15.90;47.60;;;;;;6275234;28;20475;-61
2022/03/30 10:54:50;;;;;;;22.93;19.37;;;16.10;47.40;;;;;;6275510;28;20492;-60
2022/03/30 10:57:57;;;;;;;22.47;20.10;;;16.10;47.20;;;;;;6274963;28;20477;-60
2022/03/30 11:01:13;;;;;;;24.70;21.03;;;16.10;46.80;;;;;;6274786;28;20462;-60
2022/03/30 11:04:25;;;;;;;25.17;21.80;;;16.10;46.90;;;;;;6274491;28;20479;-61
2022/03/30 11:07:31;;;;;;;26.33;21.50;;;16.20;47.00;;;;;;6275396;28;20485;-60
2022/03/30 11:10:49;;;;;;;23.07;19.67;;;16.20;46.50;;;;;;6274700;28;20775;-61
2022/03/30 11:14:31;;;;;;;24.73;20.53;;;16.30;46.50;;;;;;6275379;28;20474;-60
2022/03/30 11:17:35;;;;;;;27.27;21.70;;;16.40;46.40;;;;;;6275662;28;20780;-60
2022/03/30 11:20:39;;;;;;;26.23;21.97;;;16.30;46.40;;;;;;6274691;28;20481;-60
2022/03/30 11:23:58;;;;;;;25.87;22.03;;;16.40;46.50;;;;;;6275266;28;20477;-60
2022/03/30 11:27:24;;;;;;;23.23;20.73;;;16.40;46.00;;;;;;6274630;28;20471;-60
2022/03/30 11:30:28;;;;;;;29.30;20.67;;;16.50;46.00;;;;;;6281329;28;20981;-60
2022/03/30 11:33:34;;;;;;;26.33;20.20;;;16.70;45.80;;;;;;6283112;28;20470;-60
2022/03/30 11:36:39;;;;;;;30.97;21.83;;;16.80;45.40;;;;;;6281288;28;20470;-60
2022/03/30 11:39:42;;;;;;;22.33;19.90;;;16.90;45.00;;;;;;6280184;28;20470;-60
2022/03/30 11:42:48;;;;;;;24.93;20.90;;;17.00;44.90;;;;;;6278531;28;20469;-61
2022/03/30 11:45:52;;;;;;;51.30;46.30;;;16.80;44.60;;;;;;6279242;28;20468;-60
2022/03/30 11:49:00;;;;;;;27.47;22.40;;;16.90;44.60;;;;;;6276159;28;20474;-60
2022/03/30 11:52:15;;;;;;;27.30;21.47;;;16.90;44.70;;;;;;6274723;28;20760;-64
2022/03/30 11:55:18;;;;;;;27.47;22.77;;;17.20;44.00;;;;;;6275970;28;20574;-64
2022/03/30 11:58:31;;;;;;;27.77;22.17;;;17.30;43.80;;;;;;6275279;28;20250;-62
2022/03/30 12:01:36;;;;;;;23.47;20.80;;;17.30;43.20;;;;;;6299340;28;20211;-63
2022/03/30 12:04:39;;;;;;;24.57;21.57;;;16.90;43.50;;;;;;6274389;28;20199;-64
2022/03/30 12:07:42;;;;;;;21.80;19.57;;;16.90;44.30;;;;;;6274462;28;20938;-63
2022/03/30 12:10:47;;;;;;;26.50;21.57;;;16.90;44.00;;;;;;6274249;28;20438;-64
2022/03/30 12:13:52;;;;;;;24.50;20.83;;;17.20;43.80;;;;;;6265975;28;20587;-64
2022/03/30 12:16:58;;;;;;;25.17;22.57;;;17.20;43.20;;;;;;6275301;28;20240;-64
2022/03/30 12:20:05;;;;;;;24.73;22.00;;;17.40;42.70;;;;;;6274537;28;20470;-62
2022/03/30 12:23:10;;;;;;;22.43;20.20;;;17.20;42.40;;;;;;6274512;28;20250;-63
2022/03/30 12:26:14;;;;;;;26.10;20.80;;;17.20;42.70;;;;;;6279367;28;20242;-63
2022/03/30 12:29:19;;;;;;;25.10;21.13;;;17.30;40.90;;;;;;6279025;28;20466;-63
2022/03/30 12:32:23;;;;;;;24.07;20.30;;;17.40;41.20;;;;;;6279070;28;20235;-64
2022/03/30 12:35:31;;;;;;;23.17;20.70;;;17.40;40.60;;;;;;6278540;28;20470;-64
2022/03/30 12:38:35;;;;;;;22.57;20.13;;;17.20;40.30;;;;;;6278972;28;20235;-64
2022/03/30 12:41:39;;;;;;;23.33;20.87;;;17.20;40.80;;;;;;6278305;28;20240;-65
2022/03/30 12:44:49;;;;;;;25.70;21.10;;;17.20;40.70;;;;;;6278481;28;20488;-64
2022/03/30 12:47:55;;;;;;;23.60;21.23;;;17.10;40.80;;;;;;6278433;28;20474;-63
2022/03/30 12:51:00;;;;;;;22.27;20.00;;;17.10;40.90;;;;;;6278488;28;20470;-64
2022/03/30 12:54:03;;;;;;;27.03;20.00;;;17.20;41.00;;;;;;6278474;28;20474;-65
2022/03/30 12:57:07;;;;;;;26.00;21.37;;;17.10;40.90;;;;;;6277176;28;21092;-64
2022/03/30 13:00:19;;;;;;;22.97;18.70;;;17.00;41.10;;;;;;6266981;28;20461;-62
2022/03/30 13:03:24;;;;;;;26.27;22.00;;;17.00;41.50;;;;;;6278374;28;20482;-63
2022/03/30 13:06:27;;;;;;;22.83;19.23;;;17.00;41.70;;;;;;6277792;28;20963;-63
2022/03/30 13:09:31;;;;;;;21.10;18.60;;;16.80;42.30;;;;;;6274960;28;20474;-64
2022/03/30 13:12:39;;;;;;;21.37;19.07;;;16.80;42.60;;;;;;6277413;28;20471;-63
2022/03/30 13:15:44;;;;;;;21.30;19.07;;;16.60;43.80;;;;;;6252438;28;20472;-62
2022/03/30 13:19:01;;;;;;;23.83;19.13;;;16.50;44.00;;;;;;6258890;28;20551;-65
2022/03/30 13:22:07;;;;;;;24.50;18.77;;;16.30;44.20;;;;;;6277042;28;20489;-62
2022/03/30 13:25:24;;;;;;;20.80;18.43;;;16.30;44.50;;;;;;6277721;28;20471;-66
2022/03/30 13:28:29;;;;;;;25.57;18.50;;;16.40;44.80;;;;;;6276526;28;20470;-60
2022/03/30 13:31:35;;;;;;;20.53;18.47;;;16.30;45.00;;;;;;6279834;28;20462;-63
2022/03/30 13:34:38;;;;;;;23.80;17.80;;;16.30;45.20;;;;;;6278895;28;20438;-64
2022/03/30 13:37:41;;;;;;;20.87;18.67;;;16.40;45.20;;;;;;6277617;28;20443;-64
2022/03/30 13:40:45;;;;;;;21.50;17.60;;;16.30;45.20;;;;;;6277138;28;20466;-65
2022/03/30 13:43:49;;;;;;;18.90;17.00;;;16.20;45.80;;;;;;6278040;28;20496;-65
2022/03/30 13:46:54;;;;;;;21.13;16.90;;;16.30;45.70;;;;;;6277054;28;20555;-64
2022/03/30 13:49:57;;;;;;;19.00;15.50;;;16.10;46.20;;;;;;6276756;28;20485;-64
2022/03/30 13:53:03;;;;;;;17.57;15.70;;;16.00;45.70;;;;;;6277469;28;20481;-65
2022/03/30 13:56:09;;;;;;;18.00;16.07;;;16.10;45.50;;;;;;6276513;28;20477;-64
2022/03/30 13:59:12;;;;;;;18.43;16.53;;;16.10;45.60;;;;;;6275944;28;20466;-65
2022/03/30 14:02:16;;;;;;;20.37;15.67;;;16.30;45.60;;;;;;6276662;28;20474;-63
2022/03/30 14:05:20;;;;;;;18.30;16.50;;;16.10;45.70;;;;;;6277859;28;20475;-63
2022/03/30 14:08:24;;;;;;;20.53;15.40;;;16.00;46.00;;;;;;6278773;28;20475;-63
2022/03/30 14:11:27;;;;;;;21.93;16.70;;;16.10;46.90;;;;;;6276780;28;20782;-64
2022/03/30 14:14:30;;;;;;;22.53;16.57;;;16.20;46.00;;;;;;6276548;28;20482;-64
2022/03/30 14:17:34;;;;;;;17.37;15.60;;;16.10;46.30;;;;;;6275921;28;20795;-65
2022/03/30 14:20:38;;;;;;;17.80;11.93;;;16.10;46.30;;;;;;6266986;28;20474;-62
2022/03/30 14:23:41;;;;;;;18.47;13.50;;;16.20;45.40;;;;;;6276600;28;20493;-65
2022/03/30 14:26:45;;;;;;;17.70;13.53;;;16.10;45.10;;;;;;6277230;28;20974;-64
2022/03/30 14:29:48;;;;;;;16.70;13.17;;;16.10;45.10;;;;;;6277068;28;20470;-64
2022/03/30 14:32:53;;;;;;;13.63;11.03;;;16.20;45.00;;;;;;6276527;28;20470;-65
2022/03/30 14:35:57;;;;;;;16.70;11.77;;;16.20;44.90;;;;;;6276273;28;20810;-63
2022/03/30 14:39:00;;;;;;;12.07;10.57;;;16.30;44.90;;;;;;6276059;28;20474;-65
2022/03/30 14:42:04;;;;;;;19.23;10.90;;;16.30;44.80;;;;;;6276513;28;20489;-64
2022/03/30 14:45:08;;;;;;;14.77;10.00;;;16.40;44.50;;;;;;6277295;28;20992;-65
2022/03/30 14:48:13;;;;;;;14.40;9.47;;;16.20;44.60;;;;;;6274209;28;20470;-61
2022/03/30 14:51:17;;;;;;;13.07;10.00;;;16.10;45.00;;;;;;6275705;28;20973;-61
2022/03/30 14:54:20;;;;;;;12.00;8.87;;;16.00;45.20;;;;;;6275514;28;20482;-61
2022/03/30 14:57:23;;;;;;;13.30;9.60;;;15.80;45.50;;;;;;6275030;28;20756;-61
2022/03/30 15:00:27;;;;;;;14.50;9.90;;;15.80;45.70;;;;;;6252086;28;20474;-62
2022/03/30 15:03:32;;;;;;;14.73;11.30;;;15.90;45.60;;;;;;6251114;28;20475;-62
2022/03/30 15:06:35;;;;;;;15.47;11.80;;;15.80;46.90;;;;;;6270945;28;20474;-61
2022/03/30 15:09:38;;;;;;;15.20;13.77;;;15.70;47.90;;;;;;6275182;28;20482;-61
2022/03/30 15:12:42;;;;;;;15.50;12.83;;;15.60;48.50;;;;;;6274297;28;20494;-63
2022/03/30 15:15:45;;;;;;;14.53;13.07;;;15.50;49.10;;;;;;6275032;28;20991;-65
2022/03/30 15:18:50;;;;;;;14.33;12.93;;;15.40;49.80;;;;;;6275806;28;20474;-62
2022/03/30 15:21:53;;;;;;;15.17;12.00;;;15.30;50.30;;;;;;6274906;28;20485;-63
2022/03/30 15:24:57;;;;;;;14.57;13.07;;;15.20;50.70;;;;;;6270163;28;20470;-63
2022/03/30 15:28:00;;;;;;;15.20;13.43;;;15.20;51.20;;;;;;6274999;28;20485;-64
2022/03/30 15:31:03;;;;;;;14.70;12.40;;;15.00;51.70;;;;;;6274535;28;20778;-64
2022/03/30 15:34:08;;;;;;;21.57;12.63;;;15.00;52.00;;;;;;6275239;28;20476;-63
2022/03/30 15:37:11;;;;;;;17.60;12.07;;;14.90;52.20;;;;;;6275364;28;20970;-64
2022/03/30 15:40:15;;;;;;;13.73;12.13;;;14.80;52.60;;;;;;6275771;28;20481;-62
2022/03/30 15:43:18;;;;;;;12.77;11.50;;;14.90;52.40;;;;;;6274296;28;20789;-62
2022/03/30 15:46:21;;;;;;;14.77;13.03;;;14.90;52.40;;;;;;6274360;28;20665;-63
2022/03/30 15:49:26;;;;;;;13.30;11.83;;;14.90;52.40;;;;;;6274314;28;20485;-61
2022/03/30 15:52:31;;;;;;;17.60;12.73;;;14.80;52.60;;;;;;6274496;28;20474;-62